Map

Track Data

SID SEASON NUMBER BASIN SUBBASIN NAME ISO_TIME NATURE LAT LON WMO_WIND WMO_PRES WMO_AGENCY TRACK_TYPE DIST2LAND LANDFALL IFLAG USA_AGENCY USA_ATCF_ID USA_LAT USA_LON USA_RECORD USA_STATUS USA_WIND USA_PRES USA_SSHS USA_R34_NE USA_R34_SE USA_R34_SW USA_R34_NW USA_R50_NE USA_R50_SE USA_R50_SW USA_R50_NW USA_R64_NE USA_R64_SE USA_R64_SW USA_R64_NW USA_POCI USA_ROCI USA_RMW USA_EYE TOKYO_LAT TOKYO_LON TOKYO_GRADE TOKYO_WIND TOKYO_PRES TOKYO_R50_DIR TOKYO_R50_LONG TOKYO_R50_SHORT TOKYO_R30_DIR TOKYO_R30_LONG TOKYO_R30_SHORT TOKYO_LAND CMA_LAT CMA_LON CMA_CAT CMA_WIND CMA_PRES HKO_LAT HKO_LON HKO_CAT HKO_WIND HKO_PRES NEWDELHI_LAT NEWDELHI_LON NEWDELHI_GRADE NEWDELHI_WIND NEWDELHI_PRES NEWDELHI_CI NEWDELHI_DP NEWDELHI_POCI REUNION_LAT REUNION_LON REUNION_TYPE REUNION_WIND REUNION_PRES REUNION_TNUM REUNION_CI REUNION_RMW REUNION_R34_NE REUNION_R34_SE REUNION_R34_SW REUNION_R34_NW REUNION_R50_NE REUNION_R50_SE REUNION_R50_SW REUNION_R50_NW REUNION_R64_NE REUNION_R64_SE REUNION_R64_SW REUNION_R64_NW BOM_LAT BOM_LON BOM_TYPE BOM_WIND BOM_PRES BOM_TNUM BOM_CI BOM_RMW BOM_R34_NE BOM_R34_SE BOM_R34_SW BOM_R34_NW BOM_R50_NE BOM_R50_SE BOM_R50_SW BOM_R50_NW BOM_R64_NE BOM_R64_SE BOM_R64_SW BOM_R64_NW BOM_ROCI BOM_POCI BOM_EYE BOM_POS_METHOD BOM_PRES_METHOD NADI_LAT NADI_LON NADI_CAT NADI_WIND NADI_PRES WELLINGTON_LAT WELLINGTON_LON WELLINGTON_WIND WELLINGTON_PRES DS824_LAT DS824_LON DS824_STAGE DS824_WIND DS824_PRES TD9636_LAT TD9636_LON TD9636_STAGE TD9636_WIND TD9636_PRES TD9635_LAT TD9635_LON TD9635_WIND TD9635_PRES TD9635_ROCI NEUMANN_LAT NEUMANN_LON NEUMANN_CLASS NEUMANN_WIND NEUMANN_PRES MLC_LAT MLC_LON MLC_CLASS MLC_WIND MLC_PRES USA_GUST BOM_GUST BOM_GUST_PER REUNION_GUST REUNION_GUST_PER USA_SEAHGT USA_SEARAD_NE USA_SEARAD_SE USA_SEARAD_SW USA_SEARAD_NW STORM_SPEED STORM_DIR
1952021S07177 1952 7 SP MM NOT_NAMED 1952-01-20 12:00:00 TS -7.00000 177.100 main 1071 1052 O________OO___ jtwc_sh SH091952 -7.00000 177.100 -1 -7.00000 177.100 TC -7.00000 177.100 2 6 210
1952021S07177 1952 7 SP MM NOT_NAMED 1952-01-20 15:00:00 TS -7.25397 176.952 main 1042 1027 P________PP___ SH091952 -7.25750 176.960 -1 -7.25750 176.960 TC -7.24689 176.936 2 6 212
1952021S07177 1952 7 SP MM NOT_NAMED 1952-01-20 18:00:00 TS -7.49500 176.789 main 1027 1009 O________OP___ jtwc_sh SH091952 -7.50000 176.800 -1 -7.50000 176.800 TC -7.48501 176.768 2 6 217
1952021S07177 1952 7 SP MM NOT_NAMED 1952-01-20 21:00:00 TS -7.71187 176.602 main 1013 995 P________PP___ SH091952 -7.71500 176.607 -1 -7.71500 176.607 TC -7.70562 176.590 2 6 224
1952021S07177 1952 7 SP MM NOT_NAMED 1952-01-21 00:00:00 TS -7.90000 176.400 main 999 985 O________OO___ jtwc_sh SH091952 -7.90000 176.400 -1 -7.90000 176.400 TC -7.90000 176.400 2 5 229
1952021S07177 1952 7 SP MM NOT_NAMED 1952-01-21 03:00:00 TS -8.05948 176.198 main 985 979 P________PP___ SH091952 -8.05749 176.200 -1 -8.05749 176.200 TC -8.06346 176.195 2 5 233
1952021S07177 1952 7 SP MM NOT_NAMED 1952-01-21 06:00:00 TS -8.20251 175.995 main 983 977 O________OP___ jtwc_sh SH091952 -8.20000 176.000 -1 -8.20000 176.000 TC -8.20754 175.985 2 5 234
1952021S07177 1952 7 SP MM NOT_NAMED 1952-01-21 09:00:00 TS -8.35428 175.789 main 971 964 P________PP___ SH091952 -8.35750 175.793 -1 -8.35750 175.793 TC -8.34784 175.782 2 5 233
1952021S07177 1952 7 SP MM NOT_NAMED 1952-01-21 12:00:00 TS -8.50000 175.600 main 968 962 O________OO___ jtwc_sh SH091952 -8.50000 175.600 -1 -8.50000 175.600 TC -8.50000 175.600 2 4 234
1952021S07177 1952 7 SP MM NOT_NAMED 1952-01-21 15:00:00 TS -8.59320 175.449 main 967 956 P________PP___ SH091952 -8.57749 175.435 -1 -8.57749 175.435 TC -8.62460 175.477 2 4 231
1952021S07177 1952 7 SP MM NOT_NAMED 1952-01-21 18:00:00 TS -8.72412 175.324 main 960 939 O________OP___ jtwc_sh SH091952 -8.70000 175.300 -1 -8.70000 175.300 TC -8.77238 175.372 2 4 211
1952021S07177 1952 7 SP MM NOT_NAMED 1952-01-21 21:00:00 TS -8.94964 175.228 main 943 906 P________PP___ SH091952 -8.93247 175.215 -1 -8.93247 175.215 TC -8.98396 175.255 2 6 201
1952021S07177 1952 7 SP MM NOT_NAMED 1952-01-22 00:00:00 TS -9.30000 175.100 main 906 865 O________OO___ jtwc_sh SH091952 -9.30000 175.100 -1 -9.30000 175.100 TC -9.30000 175.100 2 9 203
1952021S07177 1952 7 SP MM NOT_NAMED 1952-01-22 03:00:00 TS -9.79251 174.860 main 865 831 P________PP___ SH091952 -9.80502 174.880 -1 -9.80502 174.880 TC -9.76751 174.820 2 12 206
1952021S07177 1952 7 SP MM NOT_NAMED 1952-01-22 06:00:00 TS -10.3793 174.569 main 821 782 O________OP___ jtwc_sh SH091952 -10.4000 174.600 -1 -10.4000 174.600 TC -10.3380 174.506 2 13 206
1952021S07177 1952 7 SP MM NOT_NAMED 1952-01-22 09:00:00 TS -10.9882 174.257 main 782 749 P________PP___ SH091952 -11.0001 174.278 -1 -11.0001 174.278 TC -10.9644 174.214 2 14 205
1952021S07177 1952 7 SP MM NOT_NAMED 1952-01-22 12:00:00 TS -11.6000 174.000 main 749 714 O________OO___ jtwc_sh SH091952 -11.6000 174.000 -1 -11.6000 174.000 TC -11.6000 174.000 2 12 199
1952021S07177 1952 7 SP MM NOT_NAMED 1952-01-22 15:00:00 TS -12.1608 173.844 main 714 668 P________PP___ SH091952 -12.1499 173.833 -1 -12.1499 173.833 TC -12.1826 173.866 2 11 189
1952021S07177 1952 7 SP MM NOT_NAMED 1952-01-22 18:00:00 TS -12.7214 173.809 main 668 608 O________OP___ jtwc_sh SH091952 -12.7000 173.800 -1 -12.7000 173.800 TC -12.7642 173.826 2 12 178
1952021S07177 1952 7 SP MM NOT_NAMED 1952-01-22 21:00:00 TS -13.3128 173.878 main 608 543 P________PP___ SH091952 -13.2999 173.868 -1 -13.2999 173.868 TC -13.3387 173.898 2 12 167
1952021S07177 1952 7 SP MM NOT_NAMED 1952-01-23 00:00:00 TS -13.9000 174.100 main 543 479 O________OO___ jtwc_sh SH091952 -13.9000 174.100 -1 -13.9000 174.100 TC -13.9000 174.100 2 13 153
1952021S07177 1952 7 SP MM NOT_NAMED 1952-01-23 03:00:00 TS -14.4660 174.474 main 464 394 P________PP___ SH091952 -14.4651 174.497 -1 -14.4651 174.497 TC -14.4680 174.428 2 14 143
1952021S07177 1952 7 SP MM NOT_NAMED 1952-01-23 06:00:00 TS -15.0059 174.961 main 386 316 O________OP___ jtwc_sh SH091952 -15.0000 175.000 -1 -15.0000 175.000 TC -15.0177 174.884 2 14 138
1952021S07177 1952 7 SP MM NOT_NAMED 1952-01-23 09:00:00 TS -15.5311 175.469 main 309 231 P________PP___ SH091952 -15.5299 175.493 -1 -15.5299 175.493 TC -15.5335 175.422 2 14 135
1952021S07177 1952 7 SP MM NOT_NAMED 1952-01-23 12:00:00 TS -16.0000 176.000 main 231 169 O________OO___ jtwc_sh SH091952 -16.0000 176.000 -1 -16.0000 176.000 TC -16.0000 176.000 2 13 131
1952021S07177 1952 7 SP MM NOT_NAMED 1952-01-23 15:00:00 TS -16.3782 176.476 main 162 104 P________PP___ SH091952 -16.3722 176.478 -1 -16.3722 176.478 TC -16.3902 176.472 2 12 127
1952021S07177 1952 7 SP MM NOT_NAMED 1952-01-23 18:00:00 TS -16.7114 176.994 main 104 55 O________OP___ jtwc_sh SH091952 -16.7000 177.000 -1 -16.7000 177.000 TC -16.7342 176.981 2 13 122
1952021S07177 1952 7 SP MM NOT_NAMED 1952-01-23 21:00:00 TS -17.0484 177.575 main 55 0 P________PP___ SH091952 -17.0419 177.576 -1 -17.0419 177.576 TC -17.0613 177.575 2 14 119
1952021S07177 1952 7 SP MM NOT_NAMED 1952-01-24 00:00:00 TS -17.4000 178.300 main 0 0 O________OO___ jtwc_sh SH091952 -17.4000 178.300 -1 -17.4000 178.300 TC -17.4000 178.300 2 18 115
1952021S07177 1952 7 SP MM NOT_NAMED 1952-01-24 03:00:00 TS -17.7991 179.235 main 62 62 P________PP___ SH091952 -17.7925 179.233 -1 -17.7925 179.233 TC -17.8123 179.240 2 21 113
1952021S07177 1952 7 SP MM NOT_NAMED 1952-01-24 06:00:00 TS -18.2111 180.303 main 162 162 O________OP___ jtwc_sh SH091952 -18.2000 -179.700 -1 -18.2000 180.300 TC -18.2333 -179.692 2 22 112
1952021S07177 1952 7 SP MM NOT_NAMED 1952-01-24 09:00:00 TS -18.6325 181.417 main 256 256 P________PP___ SH091952 -18.6301 -178.585 -1 -18.6301 -178.585 TC -18.6372 -178.578 2 22 111
1952021S07177 1952 7 SP MM NOT_NAMED 1952-01-24 12:00:00 TS -19.0000 182.500 main 369 369 O________OO___ jtwc_sh SH091952 -19.0000 -177.500 -1 -19.0000 182.500 TC -19.0000 -177.500 2 20 107
1952021S07177 1952 7 SP MM NOT_NAMED 1952-01-24 15:00:00 TS -19.2277 183.445 main 457 457 P________PP___ SH091952 -19.2142 -176.561 -1 -19.2142 -176.561 TC -19.2549 -176.543 2 18 104
1952021S07177 1952 7 SP MM NOT_NAMED 1952-01-24 18:00:00 TS -19.4252 184.320 main 548 548 O________OP___ jtwc_sh SH091952 -19.4000 -175.700 -1 -19.4000 184.300 TC -19.4756 -175.641 2 17 105
1952021S07177 1952 7 SP MM NOT_NAMED 1952-01-24 21:00:00 TS -19.6776 185.184 main 646 646 P________PP___ SH091952 -19.6622 -174.827 -1 -19.6622 -174.827 TC -19.7085 -174.793 2 17 110
1952021S07177 1952 7 SP MM NOT_NAMED 1952-01-25 00:00:00 TS -20.0000 186.000 main 709 707 O________OO___ jtwc_sh SH091952 -20.0000 -174.000 -1 -20.0000 186.000 TC -20.0000 -174.000 2 17 116
1952021S07177 1952 7 SP MM NOT_NAMED 1952-01-25 03:00:00 TS -20.4162 186.783 main 741 741 P________PP___ SH091952 -20.4197 -173.220 -1 -20.4197 -173.220 TC -20.4094 -173.210 2 17 122
1952021S07177 1952 7 SP MM NOT_NAMED 1952-01-25 06:00:00 TS -20.8939 187.509 main 794 794 O________OP___ jtwc_sh SH091952 -20.9000 -172.500 -1 -20.9000 187.500 TC -20.8816 -172.474 2 16 127
1952021S07177 1952 7 SP MM NOT_NAMED 1952-01-25 09:00:00 TS -21.3959 188.192 main 851 851 P________PP___ SH091952 -21.3998 -171.812 -1 -21.3998 -171.812 TC -21.3880 -171.800 2 16 130
1952021S07177 1952 7 SP MM NOT_NAMED 1952-01-25 12:00:00 TS -21.9000 188.800 main 912 912 O________OO___ jtwc_sh SH091952 -21.9000 -171.200 -1 -21.9000 188.800 TC -21.9000 -171.200 2 14 132
1952021S07177 1952 7 SP MM NOT_NAMED 1952-01-25 15:00:00 TS -22.3483 189.340 main 964 964 P________PP___ SH091952 -22.3497 -170.662 -1 -22.3497 -170.662 TC -22.3453 -170.656 2 13 134
1952021S07177 1952 7 SP MM NOT_NAMED 1952-01-25 18:00:00 TS -22.7987 189.805 main 1028 1028 O________OP___ jtwc_sh SH091952 -22.8000 -170.200 -1 -22.8000 189.800 TC -22.7961 -170.185 2 12 139
1952021S07177 1952 7 SP MM NOT_NAMED 1952-01-25 21:00:00 TS -23.2762 190.225 main 1092 1092 P________PP___ SH091952 -23.2773 -169.777 -1 -23.2773 -169.777 TC -23.2738 -169.772 2 12 144
1952021S07177 1952 7 SP MM NOT_NAMED 1952-01-26 00:00:00 TS -23.8000 190.600 main 1156 1156 O________OO___ jtwc_sh SH091952 -23.8000 -169.400 -1 -23.8000 190.600 TC -23.8000 -169.400 2 13 148
1952021S07177 1952 7 SP MM NOT_NAMED 1952-01-26 03:00:00 TS -24.3839 190.980 main 1232 1232 P________PP___ SH091952 -24.3699 -169.035 -1 -24.3699 -169.035 TC -24.4117 -168.991 2 14 152
1952021S07177 1952 7 SP MM NOT_NAMED 1952-01-26 06:00:00 TS -25.0233 191.325 main 1305 1305 O________OP___ jtwc_sh SH091952 -25.0000 -168.700 -1 -25.0000 191.300 TC -25.0700 -168.624 2 15 155
1952021S07177 1952 7 SP MM NOT_NAMED 1952-01-26 09:00:00 TS -25.7144 191.652 main 1391 1391 P________PP___ SH091952 -25.7000 -168.363 -1 -25.7000 -168.363 TC -25.7432 -168.320 2 15 159
1952021S07177 1952 7 SP MM NOT_NAMED 1952-01-26 12:00:00 TS -26.4000 191.900 main 1472 1472 O________OO___ jtwc_sh SH091952 -26.4000 -168.100 -1 -26.4000 191.900 TC -26.4000 -168.100 2 14 165
1952021S07177 1952 7 SP MM NOT_NAMED 1952-01-26 15:00:00 TS -27.0204 192.042 main 1539 1539 P________PP___ SH091952 -27.0224 -167.947 -1 -27.0224 -167.947 TC -27.0164 -167.979 2 12 172
1952021S07177 1952 7 SP MM NOT_NAMED 1952-01-26 18:00:00 TS -27.5991 192.087 main 1606 1606 O________OP___ jtwc_sh SH091952 -27.6000 -167.900 -1 -27.6000 192.100 TC -27.5972 -167.940 2 11 0
1952021S07177 1952 7 SP MM NOT_NAMED 1952-01-26 21:00:00 TS -28.1549 192.061 main 1640 1595 P________PP___ SH091952 -28.1551 -167.930 -1 -28.1551 -167.930 TC -28.1545 -167.956 2 11 184
1952021S07177 1952 7 SP MM NOT_NAMED 1952-01-27 00:00:00 TS -28.7000 192.000 main 1595 O________OO___ jtwc_sh SH091952 -28.7000 -168.000 -1 -28.7000 192.000 TC -28.7000 -168.000 2 11 186

Digital Typhoon Data and Search

About IBTrACS Database

This database is a web-friendly format of International Best Track Archive for Climate Stewardship (IBTrACS), a global best track data archive curated by NOAA dating back to 1842.

Updated: 2021-10-21